Time;durP1;ratioP1;P1;durP2;ratioP2;P2;SDS_P1;SDS_P2;PMS_P1;PMS_P2;Temp;Humidity;BMP_temperature;BMP_pressure;BME280_temperature;BME280_humidity;BME280_pressure;Samples;Min_cycle;Max_cycle;Signal;HPM_P1;HPM_P2
2021/04/27 00:01:05;;;;;;;6.18;3.88;;;;;;;5.87;44.17;94507.53;5017362;28;20030;-58
2021/04/27 00:03:33;;;;;;;4.45;4.05;;;;;;;6.38;44.14;94589.38;5020752;28;20492;-60
2021/04/27 00:05:59;;;;;;;5.07;3.70;;;;;;;4.44;44.77;94296.19;5031617;28;20132;-59
2021/04/27 00:08:25;;;;;;;4.05;3.65;;;;;;;5.62;43.58;94488.41;5033578;28;20517;-58
2021/04/27 00:10:50;;;;;;;5.25;4.13;;;;;;;6.85;44.39;94658.84;5011674;28;20096;-59
2021/04/27 00:13:16;;;;;;;5.43;4.22;;;;;;;6.95;44.24;94694.88;5011628;28;20651;-59
2021/04/27 00:15:41;;;;;;;5.35;3.80;;;;;;;5.04;44.65;94428.13;5010817;28;20045;-59
2021/04/27 00:18:07;;;;;;;11.68;3.75;;;;;;;4.78;44.92;94363.69;5011396;28;20077;-58
2021/04/27 00:20:32;;;;;;;5.25;4.13;;;;;;;6.81;44.38;94668.44;5008250;22;20038;-66
2021/04/27 00:22:58;;;;;;;8.07;3.90;;;;;;;6.73;44.37;94653.25;4975206;28;20069;-66
2021/04/27 00:25:25;;;;;;;7.68;4.20;;;;;;;6.59;44.99;94644.50;4973141;28;20062;-66
2021/04/27 00:27:52;;;;;;;7.57;3.72;;;;;;;6.61;45.45;94648.44;4984044;28;20035;-67
2021/04/27 00:30:20;;;;;;;5.88;4.30;;;;;;;6.59;45.49;94650.56;4991108;28;20085;-66
2021/04/27 00:32:46;;;;;;;5.30;3.40;;;;;;;6.54;45.31;94640.09;4992123;28;20147;-67
2021/04/27 00:35:13;;;;;;;6.13;4.07;;;;;;;6.49;45.92;94645.44;4993055;28;20022;-67
2021/04/27 00:37:39;;;;;;;6.45;4.10;;;;;;;6.52;45.92;94639.59;4990870;28;20065;-67
2021/04/27 00:40:06;;;;;;;5.85;4.25;;;;;;;6.37;46.92;94632.72;4992166;28;20400;-67
2021/04/27 00:42:34;;;;;;;11.00;3.95;;;;;;;6.42;46.07;94631.84;4991726;28;20049;-67
2021/04/27 00:45:00;;;;;;;3.90;3.50;;;;;;;6.36;46.90;94638.28;4990770;28;20169;-66
2021/04/27 00:47:26;;;;;;;5.53;4.15;;;;;;;6.42;46.93;94634.47;4993539;28;20018;-66
2021/04/27 00:49:55;;;;;;;5.43;4.45;;;;;;;6.40;46.45;94634.00;4974873;28;20061;-67
2021/04/27 00:52:22;;;;;;;9.13;4.55;;;;;;;6.20;46.81;94606.06;4976274;28;20440;-67
2021/04/27 00:54:48;;;;;;;4.97;4.28;;;;;;;6.14;47.44;94620.38;4971620;28;20043;-67
2021/04/27 00:57:14;;;;;;;6.53;4.22;;;;;;;6.23;47.79;94622.09;4972143;28;20059;-66
2021/04/27 00:59:40;;;;;;;7.18;4.38;;;;;;;6.31;47.73;94630.44;4972492;28;20026;-66
2021/04/27 01:02:05;;;;;;;7.13;4.32;;;;;;;6.32;47.52;94629.38;4973998;28;20608;-67
2021/04/27 01:04:33;;;;;;;5.82;4.10;;;;;;;6.23;47.14;94622.09;4972501;28;20053;-67
2021/04/27 01:06:58;;;;;;;5.20;4.35;;;;;;;6.24;47.42;94621.03;4972061;28;20048;-66
2021/04/27 01:09:41;;;;;;;4.72;4.10;;;;;;;6.10;48.02;94599.06;4972200;28;20155;-66
2021/04/27 01:12:15;;;;;;;5.50;4.28;;;;;;;6.14;47.60;94604.53;4971859;28;20130;-66
2021/04/27 01:14:44;;;;;;;7.78;4.30;;;;;;;6.16;47.34;94607.69;4972101;28;20038;-67
2021/04/27 01:17:12;;;;;;;5.75;3.75;;;;;;;6.07;48.69;94618.13;4973662;28;20023;-67
2021/04/27 01:19:42;;;;;;;6.00;4.38;;;;;;;6.13;47.74;94616.19;4971762;28;20117;-66
2021/04/27 01:22:19;;;;;;;6.15;4.85;;;;;;;6.06;48.62;94616.56;4986236;28;20047;-66
2021/04/27 01:24:53;;;;;;;9.88;4.72;;;;;;;5.95;48.96;94607.22;4970722;28;20046;-66
2021/04/27 01:27:19;;;;;;;6.20;4.00;;;;;;;6.04;48.44;94610.00;4986643;28;20046;-66
2021/04/27 01:29:45;;;;;;;9.50;4.30;;;;;;;5.94;49.25;94605.69;4971986;28;20448;-66
2021/04/27 01:32:11;;;;;;;6.00;4.90;;;;;;;5.86;48.99;94599.16;4973371;28;20098;-66
2021/04/27 01:34:42;;;;;;;5.43;4.75;;;;;;;5.88;49.32;94610.19;4970401;28;20411;-67
2021/04/27 01:37:09;;;;;;;7.57;4.82;;;;;;;5.79;49.97;94622.47;4971294;28;20097;-66
2021/04/27 01:39:35;;;;;;;6.93;5.40;;;;;;;5.84;50.07;94605.78;4971717;28;20045;-66
2021/04/27 01:42:04;;;;;;;9.38;5.30;;;;;;;5.79;49.61;94590.81;4971193;28;20117;-66
2021/04/27 01:44:30;;;;;;;15.57;5.88;;;;;;;5.84;49.49;94606.56;4971558;28;20114;-67
2021/04/27 01:46:57;;;;;;;7.05;4.85;;;;;;;5.86;49.60;94611.56;4973137;28;20106;-67
2021/04/27 01:49:23;;;;;;;8.80;5.20;;;;;;;5.82;50.28;94618.47;4971461;28;20401;-67
2021/04/27 01:51:53;;;;;;;11.32;5.45;;;;;;;5.69;49.60;94594.38;4969757;28;20042;-67
2021/04/27 01:54:27;;;;;;;7.68;5.60;;;;;;;5.73;49.92;94608.59;4971382;28;20046;-66
2021/04/27 01:56:53;;;;;;;8.38;5.10;;;;;;;5.72;50.87;94614.13;4970893;28;20037;-66
2021/04/27 01:59:18;;;;;;;9.52;5.53;;;;;;;5.57;50.55;94593.22;4973151;28;20556;-67
2021/04/27 02:01:43;;;;;;;7.72;5.18;;;;;;;5.65;50.90;94609.22;4970816;28;20043;-67
2021/04/27 02:04:09;;;;;;;6.90;5.60;;;;;;;5.54;51.51;94613.06;4969834;28;20050;-67
2021/04/27 02:06:34;;;;;;;12.65;6.72;;;;;;;5.48;51.56;94612.34;4971183;28;20441;-67
2021/04/27 02:09:07;;;;;;;9.43;5.45;;;;;;;5.57;51.11;94612.47;4970788;28;20030;-68
2021/04/27 02:11:38;;;;;;;8.25;5.50;;;;;;;5.50;51.50;94612.06;4985797;28;20441;-68
2021/04/27 02:14:05;;;;;;;7.72;5.93;;;;;;;5.51;51.85;94615.47;4972936;28;20025;-68
2021/04/27 02:16:46;;;;;;;9.25;5.80;;;;;;;5.41;51.99;94592.66;4970941;28;20125;-67
2021/04/27 02:19:12;;;;;;;10.57;6.40;;;;;;;5.26;52.52;94598.13;4970836;28;20397;-65
2021/04/27 02:21:39;;;;;;;9.13;6.07;;;;;;;5.35;52.02;94597.22;4970401;28;20038;-66
2021/04/27 02:24:06;;;;;;;10.45;6.15;;;;;;;5.31;52.71;94601.47;4970905;28;20501;-66
2021/04/27 02:26:32;;;;;;;9.63;6.68;;;;;;;5.42;52.59;94607.41;4970803;28;20031;-67
2021/04/27 02:29:00;;;;;;;8.77;6.53;;;;;;;5.35;52.78;94602.47;4971312;28;20054;-67
2021/04/27 02:31:25;;;;;;;7.47;6.47;;;;;;;5.36;52.94;94603.25;4985662;28;20451;-66
2021/04/27 02:33:51;;;;;;;7.75;6.20;;;;;;;5.26;53.41;94598.13;4978653;28;20031;-67
2021/04/27 02:36:16;;;;;;;8.57;7.03;;;;;;;5.21;53.93;94597.13;4970789;28;20035;-67
2021/04/27 02:38:43;;;;;;;7.88;6.88;;;;;;;5.17;54.24;94593.50;4970292;28;20027;-66
2021/04/27 02:41:08;;;;;;;8.60;6.85;;;;;;;5.29;54.01;94602.84;4972275;28;20082;-66
2021/04/27 02:43:40;;;;;;;7.90;6.45;;;;;;;5.31;53.81;94603.34;4970139;28;20042;-66
2021/04/27 02:46:05;;;;;;;11.18;6.45;;;;;;;5.31;53.70;94595.41;4970565;28;20047;-67
2021/04/27 02:48:31;;;;;;;9.43;7.43;;;;;;;5.29;54.07;94592.28;4970332;28;20057;-67
2021/04/27 02:51:00;;;;;;;9.63;7.63;;;;;;;5.32;53.38;94589.84;4970207;28;20039;-66
2021/04/27 02:53:26;;;;;;;10.35;7.30;;;;;;;5.29;53.43;94585.16;4972199;28;20023;-66
2021/04/27 02:55:52;;;;;;;9.10;6.40;;;;;;;5.13;54.53;94579.31;4990194;28;20042;-66
2021/04/27 02:58:18;;;;;;;8.43;7.50;;;;;;;5.13;54.86;94584.56;4972031;28;20063;-66
2021/04/27 03:00:44;;;;;;;11.90;7.10;;;;;;;5.22;54.74;94587.38;4979280;28;20041;-66
2021/04/27 03:03:09;;;;;;;10.77;7.50;;;;;;;5.16;54.96;94577.94;4969995;28;20035;-67
2021/04/27 03:05:36;;;;;;;10.60;8.10;;;;;;;5.08;54.55;94565.41;4970116;28;20392;-67
2021/04/27 03:08:01;;;;;;;8.65;7.70;;;;;;;5.13;54.95;94571.41;4970524;28;20030;-66
2021/04/27 03:10:27;;;;;;;10.13;7.28;;;;;;;5.11;55.05;94570.88;4969974;28;20039;-66
2021/04/27 03:12:53;;;;;;;10.63;7.50;;;;;;;4.98;56.03;94576.06;4984554;28;20046;-67
2021/04/27 03:15:21;;;;;;;12.18;8.40;;;;;;;4.89;56.32;94560.88;4970057;28;20109;-66
2021/04/27 03:17:46;;;;;;;9.75;7.10;;;;;;;4.90;56.29;94572.19;4969257;28;20023;-67
2021/04/27 03:20:14;;;;;;;10.55;7.32;;;;;;;4.97;56.02;94561.34;4971659;28;20037;-67
2021/04/27 03:22:40;;;;;;;9.25;7.32;;;;;;;4.77;56.66;94543.91;4984416;28;20038;-67
2021/04/27 03:25:07;;;;;;;9.98;7.28;;;;;;;4.89;56.10;94557.44;4984735;28;20370;-69
2021/04/27 03:27:33;;;;;;;10.18;7.78;;;;;;;4.90;56.03;94551.13;4969418;28;20042;-66
2021/04/27 03:29:59;;;;;;;11.00;8.00;;;;;;;4.86;56.56;94560.63;4969383;28;20039;-66
2021/04/27 03:32:25;;;;;;;8.65;7.85;;;;;;;4.56;56.44;94525.69;4971062;28;20042;-67
2021/04/27 03:34:50;;;;;;;13.75;7.75;;;;;;;4.80;56.81;94551.22;4969434;28;20046;-66
2021/04/27 03:37:16;;;;;;;8.38;7.35;;;;;;;4.77;56.41;94546.53;4969478;28;20102;-66
2021/04/27 03:39:41;;;;;;;13.48;7.40;;;;;;;4.74;56.75;94552.38;4969476;28;20043;-66
2021/04/27 03:42:07;;;;;;;8.55;7.43;;;;;;;4.65;57.10;94547.69;4969371;28;20057;-67
2021/04/27 03:44:33;;;;;;;10.25;6.90;;;;;;;4.80;56.70;94564.41;4969697;28;20085;-67
2021/04/27 03:46:59;;;;;;;9.07;7.30;;;;;;;4.55;57.77;94553.06;4971424;28;20062;-68
2021/04/27 03:49:24;;;;;;;11.13;7.70;;;;;;;4.65;57.14;94555.59;4969600;28;20070;-67
2021/04/27 03:51:50;;;;;;;8.77;7.65;;;;;;;4.64;57.24;94566.44;4969221;28;20039;-67
2021/04/27 03:54:15;;;;;;;12.73;7.13;;;;;;;4.50;57.22;94534.69;4969636;28;20047;-68
2021/04/27 03:56:41;;;;;;;12.82;7.22;;;;;;;4.70;56.81;94562.66;4969688;28;20062;-67
2021/04/27 03:59:06;;;;;;;9.07;7.20;;;;;;;4.69;56.62;94553.97;4971379;28;20030;-67
2021/04/27 04:01:32;;;;;;;8.48;7.53;;;;;;;4.67;56.73;94560.63;4969137;28;20075;-67
2021/04/27 04:03:57;;;;;;;13.85;7.90;;;;;;;4.68;56.74;94559.53;4984226;28;20131;-66
2021/04/27 04:06:23;;;;;;;13.10;6.97;;;;;;;4.57;56.91;94555.44;4969448;28;20126;-67
2021/04/27 04:08:48;;;;;;;11.65;6.95;;;;;;;4.63;56.88;94565.66;4972234;28;20523;-67
2021/04/27 04:11:14;;;;;;;11.45;6.70;;;;;;;4.48;57.16;94549.22;4989092;28;20651;-66
2021/04/27 04:13:39;;;;;;;10.68;6.80;;;;;;;4.62;56.70;94569.34;4970767;28;20045;-67
2021/04/27 04:16:06;;;;;;;9.00;6.72;;;;;;;4.69;56.50;94567.16;4969305;28;20513;-67
2021/04/27 04:18:31;;;;;;;7.65;6.80;;;;;;;4.59;56.45;94534.88;4969152;28;20090;-66
2021/04/27 04:20:57;;;;;;;10.27;6.75;;;;;;;4.74;56.46;94563.69;4951678;28;20055;-67
2021/04/27 04:23:23;;;;;;;7.05;5.50;;;;;;;4.79;56.09;94552.31;4970964;28;20442;-68
2021/04/27 04:25:48;;;;;;;8.60;6.72;;;;;;;4.86;55.96;94558.81;4969261;28;20090;-67
2021/04/27 04:28:14;;;;;;;9.98;7.15;;;;;;;4.63;56.78;94560.38;4968971;28;20445;-67
2021/04/27 04:30:39;;;;;;;8.45;6.68;;;;;;;4.88;55.79;94561.94;4971723;28;20039;-68
2021/04/27 04:33:05;;;;;;;8.35;6.50;;;;;;;4.71;56.37;94559.00;4972500;28;20477;-67
2021/04/27 04:35:31;;;;;;;7.93;6.22;;;;;;;5.13;55.56;94549.53;4972672;28;20039;-66
2021/04/27 04:37:57;;;;;;;8.50;6.35;;;;;;;5.26;55.08;94553.28;4957010;28;20425;-66
2021/04/27 04:40:22;;;;;;;8.38;6.00;;;;;;;5.34;54.68;94563.22;4972324;28;20045;-66
2021/04/27 04:42:47;;;;;;;8.90;5.80;;;;;;;5.61;53.99;94557.28;4972292;28;20050;-67
2021/04/27 04:45:15;;;;;;;10.63;5.90;;;;;;;5.71;53.48;94554.50;4972579;28;20385;-66
2021/04/27 04:47:41;;;;;;;10.38;6.32;;;;;;;5.89;53.07;94553.72;4972404;28;20031;-66
2021/04/27 04:50:09;;;;;;;9.13;6.22;;;;;;;6.10;52.73;94553.41;4974265;28;20041;-67
2021/04/27 04:52:34;;;;;;;8.88;6.50;;;;;;;6.06;52.15;94552.41;4972210;28;20074;-67
2021/04/27 04:55:00;;;;;;;6.45;5.85;;;;;;;6.35;52.25;94547.69;4972289;28;20492;-67
2021/04/27 04:57:25;;;;;;;7.10;6.30;;;;;;;6.25;51.99;94548.66;4972257;28;20042;-66
2021/04/27 04:59:50;;;;;;;8.00;6.15;;;;;;;6.33;51.63;94546.41;4975529;28;20038;-67
2021/04/27 05:02:16;;;;;;;7.28;5.75;;;;;;;6.41;51.31;94543.88;4993240;28;20125;-66
2021/04/27 05:04:42;;;;;;;9.65;6.03;;;;;;;6.46;51.20;94551.72;4974112;28;20088;-67
2021/04/27 05:07:11;;;;;;;9.02;5.75;;;;;;;6.50;50.60;94549.28;4989723;28;20426;-70
2021/04/27 05:09:37;;;;;;;13.00;5.93;;;;;;;6.57;50.96;94552.31;4991416;28;20515;-70
2021/04/27 05:12:04;;;;;;;6.68;5.57;;;;;;;6.72;50.42;94559.19;4973793;28;20485;-69
2021/04/27 05:14:35;;;;;;;10.05;6.03;;;;;;;6.54;50.07;94546.81;4991201;28;20077;-68
2021/04/27 05:17:01;;;;;;;7.13;5.95;;;;;;;6.08;50.82;94542.34;4991737;28;20429;-67
2021/04/27 05:19:27;;;;;;;8.70;6.22;;;;;;;6.65;50.19;94546.34;4991141;28;20046;-67
2021/04/27 05:21:52;;;;;;;11.60;6.88;;;;;;;6.50;50.70;94544.00;4988568;28;20500;-71
2021/04/27 05:24:18;;;;;;;7.50;5.90;;;;;;;6.57;50.26;94536.47;4983057;28;20032;-66
2021/04/27 05:26:44;;;;;;;7.07;6.22;;;;;;;6.59;50.49;94536.94;4971473;28;20034;-68
2021/04/27 05:29:09;;;;;;;9.32;6.20;;;;;;;6.61;50.64;94540.09;4973727;28;20027;-69
2021/04/27 05:31:35;;;;;;;7.80;5.93;;;;;;;6.83;50.56;94549.19;4989248;28;20046;-71
2021/04/27 05:34:01;;;;;;;9.00;6.50;;;;;;;6.81;50.26;94549.50;4991070;28;20035;-67
2021/04/27 05:36:26;;;;;;;7.88;5.78;;;;;;;6.77;50.47;94551.94;4990773;28;20046;-68
2021/04/27 05:38:51;;;;;;;10.40;6.93;;;;;;;6.75;49.91;94538.22;4986052;28;20119;-74
2021/04/27 05:41:17;;;;;;;9.80;6.50;;;;;;;6.96;50.68;94538.63;4972620;28;20023;-69
2021/04/27 05:43:42;;;;;;;11.57;6.50;;;;;;;6.81;50.55;94530.19;4970395;28;20054;-68
2021/04/27 05:46:09;;;;;;;7.28;6.57;;;;;;;7.05;50.47;94538.69;4984952;28;20038;-71
2021/04/27 05:48:34;;;;;;;9.52;6.38;;;;;;;7.13;50.07;94539.88;4974144;28;20035;-69
2021/04/27 05:50:59;;;;;;;10.90;7.10;;;;;;;7.24;50.17;94539.34;4985526;28;20042;-67
2021/04/27 05:53:25;;;;;;;12.48;6.90;;;;;;;7.22;49.25;94525.66;4972566;28;20055;-68
2021/04/27 05:55:50;;;;;;;9.05;6.95;;;;;;;7.16;49.34;94547.97;4971983;28;20433;-68
2021/04/27 05:58:15;;;;;;;9.70;6.85;;;;;;;7.28;50.01;94537.69;4970809;28;20039;-68
2021/04/27 06:00:41;;;;;;;8.55;7.13;;;;;;;7.12;50.07;94531.16;4980613;28;20125;-71
2021/04/27 06:03:06;;;;;;;9.88;6.75;;;;;;;7.09;50.23;94531.75;4968297;28;20037;-71
2021/04/27 06:05:31;;;;;;;13.40;6.97;;;;;;;7.39;50.01;94551.47;4971877;28;20027;-64
2021/04/27 06:07:57;;;;;;;9.32;6.97;;;;;;;7.55;49.10;94550.06;4972461;28;20665;-70
2021/04/27 06:10:23;;;;;;;11.60;7.22;;;;;;;7.68;49.11;94532.59;4971825;28;20042;-69
2021/04/27 06:12:48;;;;;;;12.07;6.80;;;;;;;7.65;49.29;94543.75;4971663;28;20070;-71
2021/04/27 06:15:16;;;;;;;9.68;6.90;;;;;;;7.52;48.70;94531.34;4971784;28;20042;-70
2021/04/27 06:17:42;;;;;;;7.40;6.55;;;;;;;7.77;48.61;94535.28;4973529;28;20452;-69
2021/04/27 06:20:10;;;;;;;14.13;7.07;;;;;;;7.75;48.60;94532.16;4992226;28;20118;-70
2021/04/27 06:22:36;;;;;;;12.88;7.30;;;;;;;7.95;48.82;94544.13;4990548;28;20078;-68
2021/04/27 06:25:02;;;;;;;18.35;6.25;;;;;;;8.05;48.05;94543.91;4977262;28;20042;-65
2021/04/27 06:27:29;;;;;;;8.57;6.32;;;;;;;8.45;51.69;94534.19;4971517;28;20034;-61
2021/04/27 06:29:55;;;;;;;8.75;6.97;;;;;;;8.85;49.25;94528.84;4971753;28;20060;-61
2021/04/27 06:32:21;;;;;;;10.45;6.70;;;;;;;9.04;47.17;94534.69;4973079;28;20034;-61
2021/04/27 06:34:46;;;;;;;13.25;7.22;;;;;;;9.31;46.25;94528.34;4971298;28;20054;-61
2021/04/27 06:37:11;;;;;;;9.95;6.13;;;;;;;9.61;46.57;94525.88;4971184;28;20035;-60
2021/04/27 06:39:38;;;;;;;14.00;6.47;;;;;;;10.05;45.46;94526.66;4963235;28;20177;-61
2021/04/27 06:42:04;;;;;;;9.93;6.70;;;;;;;10.28;43.59;94512.06;4980965;28;20114;-68
2021/04/27 06:44:29;;;;;;;12.65;6.65;;;;;;;10.34;42.95;94518.03;4968262;28;20126;-70
2021/04/27 06:46:54;;;;;;;9.65;6.78;;;;;;;10.21;42.82;94510.97;4961215;28;20596;-67
2021/04/27 06:49:20;;;;;;;13.88;7.45;;;;;;;10.17;43.30;94508.16;4993281;28;20038;-74
2021/04/27 06:51:45;;;;;;;8.60;6.50;;;;;;;9.82;43.29;94534.00;4988141;28;20038;-70
2021/04/27 06:54:11;;;;;;;8.55;6.93;;;;;;;9.36;44.52;94482.28;4984465;28;20497;-73
2021/04/27 06:56:36;;;;;;;14.80;7.00;;;;;;;9.79;44.45;94510.72;4970216;28;20026;-68
2021/04/27 06:59:01;;;;;;;15.40;7.18;;;;;;;9.27;45.80;94516.81;4972839;28;20162;-73
2021/04/27 07:01:27;;;;;;;11.07;7.35;;;;;;;9.05;45.24;94491.16;4987017;28;20134;-74
2021/04/27 07:03:52;;;;;;;13.02;7.20;;;;;;;9.19;45.88;94499.00;4989445;28;20400;-77
2021/04/27 07:06:17;;;;;;;7.55;6.38;;;;;;;9.68;45.14;94518.25;4981728;28;20038;-71
2021/04/27 07:08:43;;;;;;;7.10;6.25;;;;;;;9.36;44.61;94451.22;4985994;28;20163;-71
2021/04/27 07:11:10;;;;;;;19.80;7.78;;;;;;;9.60;44.92;94487.91;4972812;28;20038;-67
2021/04/27 07:13:36;;;;;;;13.45;7.43;;;;;;;9.56;45.26;94516.19;4970861;28;20070;-74
2021/04/27 07:16:02;;;;;;;13.50;7.40;;;;;;;10.07;44.67;94527.88;4969523;28;20469;-70
2021/04/27 07:18:27;;;;;;;13.18;7.72;;;;;;;9.99;44.41;94515.41;4968281;28;20130;-67
2021/04/27 07:20:52;;;;;;;11.18;7.03;;;;;;;9.71;44.99;94514.16;4970048;28;20134;-75
2021/04/27 07:23:18;;;;;;;7.82;7.07;;;;;;;10.03;44.77;94504.91;4972729;28;20078;-74
2021/04/27 07:25:43;;;;;;;7.68;6.88;;;;;;;9.37;44.81;94447.50;4969314;28;20453;-73
2021/04/27 07:28:09;;;;;;;13.38;7.30;;;;;;;9.29;46.19;94484.63;4970763;28;20047;-68
2021/04/27 07:30:35;;;;;;;8.73;6.95;;;;;;;9.71;45.73;94514.94;4969016;28;20034;-69
2021/04/27 07:33:01;;;;;;;9.40;6.70;;;;;;;9.48;46.10;94498.41;4970596;28;20109;-70
2021/04/27 07:35:27;;;;;;;8.25;7.45;;;;;;;9.78;46.02;94506.53;4970489;28;20485;-69
2021/04/27 07:37:53;;;;;;;8.70;7.10;;;;;;;9.92;45.39;94511.66;4971213;28;20057;-64
2021/04/27 07:40:19;;;;;;;8.98;6.80;;;;;;;9.66;45.27;94477.16;4970775;28;20453;-73
2021/04/27 07:42:45;;;;;;;9.57;7.38;;;;;;;9.51;45.38;94431.38;4969808;28;20082;-71
2021/04/27 07:45:12;;;;;;;11.73;7.63;;;;;;;9.97;45.65;94506.16;4970791;28;20047;-71
2021/04/27 07:47:38;;;;;;;12.63;8.07;;;;;;;10.06;45.50;94485.69;4970424;28;20034;-70
2021/04/27 07:50:05;;;;;;;10.43;7.35;;;;;;;10.54;43.95;94497.91;4971835;28;20454;-70
2021/04/27 07:52:33;;;;;;;8.43;7.05;;;;;;;10.18;45.27;94499.09;4970337;28;20113;-70
2021/04/27 07:54:59;;;;;;;12.40;7.68;;;;;;;10.21;44.93;94498.47;4970563;28;20042;-70
2021/04/27 07:57:24;;;;;;;9.20;7.57;;;;;;;10.10;44.82;94460.81;4970248;28;20474;-70
2021/04/27 07:59:49;;;;;;;8.98;7.80;;;;;;;10.25;44.96;94486.16;4970179;28;20093;-70
2021/04/27 08:02:15;;;;;;;10.40;7.93;;;;;;;10.44;45.29;94484.97;4970844;28;20133;-69
2021/04/27 08:04:40;;;;;;;8.05;7.22;;;;;;;10.76;44.34;94484.38;4987902;28;20516;-70
2021/04/27 08:07:06;;;;;;;9.93;7.75;;;;;;;10.79;44.35;94474.97;4973955;28;20073;-72
2021/04/27 08:09:31;;;;;;;9.90;7.63;;;;;;;10.78;44.34;94452.91;4974200;28;20398;-68
2021/04/27 08:11:57;;;;;;;10.25;7.20;;;;;;;11.21;43.42;94473.19;4988736;28;20074;-70
2021/04/27 08:14:22;;;;;;;11.30;7.40;;;;;;;11.34;42.94;94482.00;4976257;28;20023;-69
2021/04/27 08:16:48;;;;;;;9.90;7.78;;;;;;;11.35;43.40;94479.00;4973958;28;20118;-69
2021/04/27 08:19:13;;;;;;;16.98;7.75;;;;;;;11.33;43.00;94478.56;4973739;28;20043;-67
2021/04/27 08:21:39;;;;;;;15.20;7.88;;;;;;;11.42;42.82;94479.28;4973232;28;20062;-67
2021/04/27 08:24:05;;;;;;;8.98;8.10;;;;;;;11.36;42.58;94463.81;4973869;28;20114;-69
2021/04/27 08:26:31;;;;;;;11.00;8.45;;;;;;;11.23;42.89;94486.16;4973926;28;20358;-68
2021/04/27 08:28:56;;;;;;;8.90;7.65;;;;;;;11.54;42.58;94470.56;4975708;28;20034;-68
2021/04/27 08:31:22;;;;;;;10.50;9.32;;;;;;;11.75;43.12;94464.44;4988398;28;20608;-68
2021/04/27 08:33:48;;;;;;;9.70;7.60;;;;;;;11.88;41.98;94461.53;4973622;28;20548;-71
2021/04/27 08:36:13;;;;;;;9.40;7.45;;;;;;;12.13;41.92;94458.94;4988690;28;20043;-69
2021/04/27 08:38:39;;;;;;;8.40;7.55;;;;;;;12.05;41.44;94467.81;4973518;28;20035;-69
2021/04/27 08:41:05;;;;;;;11.80;7.70;;;;;;;11.94;41.40;94462.88;4990490;28;20035;-69
2021/04/27 08:43:30;;;;;;;10.88;7.63;;;;;;;12.16;41.53;94483.06;4987781;28;20043;-70
2021/04/27 08:45:56;;;;;;;11.45;7.70;;;;;;;12.47;40.99;94477.22;4973674;28;20479;-69
2021/04/27 08:48:22;;;;;;;10.13;7.60;;;;;;;12.65;39.99;94471.69;4973511;28;20035;-69
2021/04/27 08:50:49;;;;;;;8.15;7.35;;;;;;;12.44;41.12;94469.91;4972942;28;20125;-69
2021/04/27 08:53:14;;;;;;;8.52;7.57;;;;;;;12.10;41.05;94467.59;4975187;28;20473;-70
2021/04/27 08:55:40;;;;;;;11.15;7.90;;;;;;;12.06;42.09;94472.81;4973421;28;20062;-69
2021/04/27 08:58:07;;;;;;;10.95;7.60;;;;;;;12.24;41.89;94470.75;4973174;28;20043;-70
2021/04/27 09:00:33;;;;;;;10.15;7.93;;;;;;;11.97;42.76;94472.09;4973245;28;20042;-69
2021/04/27 09:03:02;;;;;;;8.90;7.70;;;;;;;12.27;41.36;94458.63;4972942;28;20031;-69
2021/04/27 09:05:30;;;;;;;10.43;7.68;;;;;;;12.55;40.94;94462.25;4971736;28;20492;-69
2021/04/27 09:07:56;;;;;;;13.80;7.93;;;;;;;12.52;40.91;94459.44;4974945;28;20038;-70
2021/04/27 09:10:27;;;;;;;9.25;7.90;;;;;;;12.19;41.24;94407.75;4987884;28;20174;-70
2021/04/27 09:12:55;;;;;;;13.80;7.50;;;;;;;12.21;41.49;94450.06;4972642;28;20038;-70
2021/04/27 09:15:31;;;;;;;11.30;7.45;;;;;;;12.25;41.35;94461.63;4972344;28;20043;-70
2021/04/27 09:17:57;;;;;;;12.60;7.38;;;;;;;12.40;41.84;94452.22;4972656;28;20050;-69
2021/04/27 09:20:23;;;;;;;8.00;7.07;;;;;;;12.30;41.88;94449.97;4989072;28;20095;-69
2021/04/27 09:22:48;;;;;;;11.10;7.80;;;;;;;12.21;41.75;94448.19;4972631;28;20517;-69
2021/04/27 09:25:15;;;;;;;14.00;7.50;;;;;;;12.58;41.21;94453.56;4987392;28;20038;-70
2021/04/27 09:27:44;;;;;;;13.40;7.68;;;;;;;12.51;42.04;94447.22;4991624;28;20039;-69
2021/04/27 09:30:13;;;;;;;10.02;8.30;;;;;;;12.84;40.90;94447.09;4989912;28;20137;-69
2021/04/27 09:32:42;;;;;;;11.15;7.95;;;;;;;12.46;41.11;94445.56;4991415;28;20081;-69
2021/04/27 09:35:32;;;;;;;8.85;7.95;;;;;;;12.88;40.73;94445.34;4993661;28;20424;-69
2021/04/27 09:38:18;;;;;;;11.40;8.02;;;;;;;12.85;40.93;94438.78;4991863;28;20100;-69
2021/04/27 09:40:46;;;;;;;10.57;7.75;;;;;;;12.76;40.80;94448.78;4991173;28;20151;-69
2021/04/27 09:43:12;;;;;;;13.02;8.63;;;;;;;12.84;40.96;94441.78;4976797;28;20129;-69
2021/04/27 09:45:42;;;;;;;9.60;7.70;;;;;;;12.93;40.36;94424.53;4964033;28;20240;-69
2021/04/27 09:48:08;;;;;;;11.80;7.78;;;;;;;13.35;40.84;94426.16;4985993;28;20053;-69
2021/04/27 09:50:34;;;;;;;8.98;7.40;;;;;;;13.36;39.17;94428.50;4971558;28;20035;-70
2021/04/27 09:53:01;;;;;;;8.95;7.80;;;;;;;13.48;39.41;94431.13;4973557;28;20129;-69
2021/04/27 09:55:30;;;;;;;11.05;8.23;;;;;;;13.68;39.56;94428.59;4972076;28;20563;-69
2021/04/27 09:57:56;;;;;;;10.73;8.32;;;;;;;13.68;39.50;94431.28;4971605;28;20077;-69
2021/04/27 10:00:28;;;;;;;12.82;7.47;;;;;;;13.83;39.10;94427.88;4970362;28;20039;-69
2021/04/27 10:02:55;;;;;;;9.27;7.82;;;;;;;13.58;38.79;94427.19;4971473;28;20038;-70
2021/04/27 10:05:21;;;;;;;10.73;7.57;;;;;;;13.74;38.93;94411.97;4974105;28;20027;-70
2021/04/27 10:07:47;;;;;;;9.05;7.53;;;;;;;14.04;39.35;94412.38;4986865;28;20035;-75
2021/04/27 10:10:15;;;;;;;8.57;7.70;;;;;;;14.37;38.07;94421.97;4972361;28;20412;-68
2021/04/27 10:12:41;;;;;;;9.45;7.32;;;;;;;14.24;38.53;94429.31;4971706;28;20043;-66
2021/04/27 10:15:08;;;;;;;10.80;8.07;;;;;;;14.34;38.62;94411.22;4971922;28;20113;-66
2021/04/27 10:17:34;;;;;;;11.32;7.60;;;;;;;14.41;38.10;94409.47;4971404;28;20026;-66
2021/04/27 10:20:04;;;;;;;8.73;7.93;;;;;;;14.28;38.84;94398.09;4973337;28;20073;-69
2021/04/27 10:22:30;;;;;;;9.70;8.30;;;;;;;14.06;39.11;94401.34;4971541;28;20174;-68
2021/04/27 10:24:56;;;;;;;8.73;7.28;;;;;;;14.43;38.92;94385.03;4971807;28;20133;-68
2021/04/27 10:27:26;;;;;;;11.50;7.60;;;;;;;14.97;37.80;94401.25;4970846;28;20062;-69
2021/04/27 10:30:14;;;;;;;9.70;8.10;;;;;;;14.51;38.43;94397.50;4971683;28;20034;-72
2021/04/27 10:32:39;;;;;;;9.15;8.23;;;;;;;14.97;38.11;94368.34;4971179;28;20035;-66
2021/04/27 10:35:06;;;;;;;8.85;7.95;;;;;;;14.68;37.59;94393.69;4973872;28;20027;-71
2021/04/27 10:38:07;;;;;;;8.77;7.78;;;;;;;14.91;37.86;94396.50;4971216;28;20046;-75
2021/04/27 10:40:52;;;;;;;8.70;7.88;;;;;;;14.90;38.00;94395.75;4971420;28;20042;-68
2021/04/27 10:43:27;;;;;;;9.25;8.02;;;;;;;15.26;37.43;94388.47;4970594;28;20046;-67
2021/04/27 10:45:55;;;;;;;10.13;8.18;;;;;;;15.12;37.67;94380.13;4971475;28;20556;-67
2021/04/27 10:48:46;;;;;;;8.57;7.70;;;;;;;14.43;38.79;94367.09;4970988;28;20053;-67
2021/04/27 10:51:21;;;;;;;11.30;7.80;;;;;;;14.66;38.27;94382.56;4985337;28;20043;-67
2021/04/27 10:54:08;;;;;;;9.75;8.15;;;;;;;14.97;37.80;94373.69;4971234;28;20329;-67
2021/04/27 10:56:43;;;;;;;9.05;8.13;;;;;;;15.01;37.21;94383.34;4971062;28;20054;-67
2021/04/27 10:59:16;;;;;;;10.50;8.57;;;;;;;14.94;37.27;94374.38;4972914;28;20134;-67
2021/04/27 11:01:43;;;;;;;10.10;7.63;;;;;;;14.85;37.71;94353.16;4970844;28;20039;-67
2021/04/27 11:04:40;;;;;;;13.32;8.93;;;;;;;14.77;38.24;94367.50;4969797;28;20035;-67
2021/04/27 11:07:11;;;;;;;8.40;7.68;;;;;;;14.98;38.15;94359.94;4971048;28;20058;-67
2021/04/27 11:09:38;;;;;;;11.10;7.32;;;;;;;15.71;37.35;94366.38;4970933;28;20058;-67
2021/04/27 11:12:28;;;;;;;10.27;7.53;;;;;;;16.20;36.02;94370.31;4970865;28;20039;-67
2021/04/27 11:14:55;;;;;;;8.73;7.93;;;;;;;15.66;36.93;94361.34;4971104;28;20046;-67
2021/04/27 11:17:33;;;;;;;9.70;8.07;;;;;;;15.44;36.45;94362.78;4972680;28;20107;-67
2021/04/27 11:20:00;;;;;;;9.07;8.18;;;;;;;15.41;36.95;94362.75;4990088;28;20061;-67
2021/04/27 11:22:31;;;;;;;8.50;7.57;;;;;;;15.76;35.83;94343.88;4973849;28;20042;-68
2021/04/27 11:24:57;;;;;;;8.68;7.75;;;;;;;15.92;36.68;94349.94;4969470;28;20042;-68
2021/04/27 11:27:45;;;;;;;11.25;7.70;;;;;;;15.59;36.35;94356.56;4970798;28;20038;-69
2021/04/27 11:30:13;;;;;;;11.88;8.40;;;;;;;15.32;36.76;94352.22;4970075;28;20378;-69
2021/04/27 11:32:44;;;;;;;11.23;8.02;;;;;;;15.58;36.42;94365.75;4970538;28;20034;-68
2021/04/27 11:35:14;;;;;;;10.77;8.18;;;;;;;15.53;36.47;94352.63;4972698;28;20417;-68
2021/04/27 11:37:45;;;;;;;9.82;7.90;;;;;;;15.67;36.36;94344.13;4970292;28;20094;-68